sensor_id;sensor_type;location;lat;lon;timestamp;P1;durP1;ratioP1;P2;durP2;ratioP2
7446;SDS011;3765;47.962;7.952;2022-12-18T00:00:04;56.27;;;32.30;;
7446;SDS011;3765;47.962;7.952;2022-12-18T00:02:33;52.00;;;29.17;;
7446;SDS011;3765;47.962;7.952;2022-12-18T00:05:02;51.30;;;29.30;;
7446;SDS011;3765;47.962;7.952;2022-12-18T00:07:30;49.90;;;29.43;;
7446;SDS011;3765;47.962;7.952;2022-12-18T00:09:58;99.00;;;29.70;;
7446;SDS011;3765;47.962;7.952;2022-12-18T00:12:26;57.07;;;31.20;;
7446;SDS011;3765;47.962;7.952;2022-12-18T00:14:57;63.20;;;31.70;;
7446;SDS011;3765;47.962;7.952;2022-12-18T00:17:25;48.97;;;28.43;;
7446;SDS011;3765;47.962;7.952;2022-12-18T00:19:53;52.07;;;26.77;;
7446;SDS011;3765;47.962;7.952;2022-12-18T00:22:21;47.50;;;26.87;;
7446;SDS011;3765;47.962;7.952;2022-12-18T00:24:49;43.60;;;26.10;;
7446;SDS011;3765;47.962;7.952;2022-12-18T00:27:17;53.03;;;29.83;;
7446;SDS011;3765;47.962;7.952;2022-12-18T00:29:45;44.13;;;26.57;;
7446;SDS011;3765;47.962;7.952;2022-12-18T00:32:16;47.77;;;27.90;;
7446;SDS011;3765;47.962;7.952;2022-12-18T00:34:44;43.90;;;27.83;;
7446;SDS011;3765;47.962;7.952;2022-12-18T00:37:12;47.17;;;27.40;;
7446;SDS011;3765;47.962;7.952;2022-12-18T00:39:47;44.07;;;25.17;;
7446;SDS011;3765;47.962;7.952;2022-12-18T00:42:15;41.57;;;24.57;;
7446;SDS011;3765;47.962;7.952;2022-12-18T00:45:01;50.40;;;29.77;;
7446;SDS011;3765;47.962;7.952;2022-12-18T00:47:39;46.37;;;28.40;;
7446;SDS011;3765;47.962;7.952;2022-12-18T00:50:07;41.43;;;25.20;;
7446;SDS011;3765;47.962;7.952;2022-12-18T00:52:39;42.63;;;26.50;;
7446;SDS011;3765;47.962;7.952;2022-12-18T00:55:08;39.80;;;25.10;;
7446;SDS011;3765;47.962;7.952;2022-12-18T00:57:36;44.27;;;26.10;;
7446;SDS011;3765;47.962;7.952;2022-12-18T01:00:06;47.03;;;27.13;;
7446;SDS011;3765;47.962;7.952;2022-12-18T01:02:37;49.23;;;28.27;;
7446;SDS011;3765;47.962;7.952;2022-12-18T01:05:07;43.63;;;27.00;;
7446;SDS011;3765;47.962;7.952;2022-12-18T01:07:36;50.43;;;29.50;;
7446;SDS011;3765;47.962;7.952;2022-12-18T01:10:05;43.47;;;25.73;;
7446;SDS011;3765;47.962;7.952;2022-12-18T01:12:34;43.73;;;25.93;;
7446;SDS011;3765;47.962;7.952;2022-12-18T01:15:02;49.60;;;27.50;;
7446;SDS011;3765;47.962;7.952;2022-12-18T01:17:32;41.70;;;24.10;;
7446;SDS011;3765;47.962;7.952;2022-12-18T01:20:02;42.77;;;24.03;;
7446;SDS011;3765;47.962;7.952;2022-12-18T01:22:33;40.40;;;23.40;;
7446;SDS011;3765;47.962;7.952;2022-12-18T01:25:02;38.97;;;22.03;;
7446;SDS011;3765;47.962;7.952;2022-12-18T01:27:32;42.30;;;24.10;;
7446;SDS011;3765;47.962;7.952;2022-12-18T01:30:01;38.20;;;23.70;;
7446;SDS011;3765;47.962;7.952;2022-12-18T01:32:29;41.00;;;24.93;;
7446;SDS011;3765;47.962;7.952;2022-12-18T01:34:57;40.30;;;24.10;;
7446;SDS011;3765;47.962;7.952;2022-12-18T01:37:27;43.20;;;24.60;;
7446;SDS011;3765;47.962;7.952;2022-12-18T01:39:55;42.70;;;25.30;;
7446;SDS011;3765;47.962;7.952;2022-12-18T01:42:23;42.03;;;24.10;;
7446;SDS011;3765;47.962;7.952;2022-12-18T01:45:00;41.73;;;23.10;;
7446;SDS011;3765;47.962;7.952;2022-12-18T01:47:33;42.10;;;23.40;;
7446;SDS011;3765;47.962;7.952;2022-12-18T01:50:06;41.57;;;25.47;;
7446;SDS011;3765;47.962;7.952;2022-12-18T01:52:40;42.60;;;24.83;;
7446;SDS011;3765;47.962;7.952;2022-12-18T01:55:10;39.37;;;22.87;;
7446;SDS011;3765;47.962;7.952;2022-12-18T01:57:39;41.63;;;23.77;;
7446;SDS011;3765;47.962;7.952;2022-12-18T02:00:09;49.07;;;23.43;;
7446;SDS011;3765;47.962;7.952;2022-12-18T02:02:39;36.47;;;22.30;;
7446;SDS011;3765;47.962;7.952;2022-12-18T02:05:09;40.40;;;24.47;;
7446;SDS011;3765;47.962;7.952;2022-12-18T02:07:42;40.60;;;22.73;;
7446;SDS011;3765;47.962;7.952;2022-12-18T02:10:21;40.23;;;23.43;;
7446;SDS011;3765;47.962;7.952;2022-12-18T02:12:56;40.10;;;23.57;;
7446;SDS011;3765;47.962;7.952;2022-12-18T02:15:33;45.57;;;24.97;;
7446;SDS011;3765;47.962;7.952;2022-12-18T02:18:07;42.73;;;23.27;;
7446;SDS011;3765;47.962;7.952;2022-12-18T02:20:40;42.90;;;25.20;;
7446;SDS011;3765;47.962;7.952;2022-12-18T02:23:16;45.10;;;24.73;;
7446;SDS011;3765;47.962;7.952;2022-12-18T02:26:06;38.00;;;20.90;;
7446;SDS011;3765;47.962;7.952;2022-12-18T02:28:42;42.13;;;23.97;;
7446;SDS011;3765;47.962;7.952;2022-12-18T02:31:14;39.17;;;23.40;;
7446;SDS011;3765;47.962;7.952;2022-12-18T02:33:49;40.23;;;23.87;;
7446;SDS011;3765;47.962;7.952;2022-12-18T02:36:18;40.57;;;23.33;;
7446;SDS011;3765;47.962;7.952;2022-12-18T02:38:49;43.10;;;25.23;;
7446;SDS011;3765;47.962;7.952;2022-12-18T02:41:23;46.70;;;25.07;;
7446;SDS011;3765;47.962;7.952;2022-12-18T02:43:53;45.07;;;23.50;;
7446;SDS011;3765;47.962;7.952;2022-12-18T02:46:31;37.90;;;20.50;;
7446;SDS011;3765;47.962;7.952;2022-12-18T02:49:06;38.83;;;21.93;;
7446;SDS011;3765;47.962;7.952;2022-12-18T02:51:47;40.63;;;23.53;;
7446;SDS011;3765;47.962;7.952;2022-12-18T02:54:21;40.70;;;20.67;;
7446;SDS011;3765;47.962;7.952;2022-12-18T02:57:05;41.30;;;21.33;;
7446;SDS011;3765;47.962;7.952;2022-12-18T02:59:41;44.60;;;24.60;;
7446;SDS011;3765;47.962;7.952;2022-12-18T03:02:17;41.77;;;24.07;;
7446;SDS011;3765;47.962;7.952;2022-12-18T03:04:51;40.57;;;22.27;;
7446;SDS011;3765;47.962;7.952;2022-12-18T03:07:28;46.17;;;24.30;;
7446;SDS011;3765;47.962;7.952;2022-12-18T03:10:05;37.43;;;19.27;;
7446;SDS011;3765;47.962;7.952;2022-12-18T03:12:37;41.57;;;24.10;;
7446;SDS011;3765;47.962;7.952;2022-12-18T03:15:11;44.30;;;23.27;;
7446;SDS011;3765;47.962;7.952;2022-12-18T03:17:44;41.00;;;22.13;;
7446;SDS011;3765;47.962;7.952;2022-12-18T03:20:17;43.00;;;23.23;;
7446;SDS011;3765;47.962;7.952;2022-12-18T03:22:49;42.27;;;24.37;;
7446;SDS011;3765;47.962;7.952;2022-12-18T03:25:20;49.53;;;25.27;;
7446;SDS011;3765;47.962;7.952;2022-12-18T03:27:51;44.00;;;22.60;;
7446;SDS011;3765;47.962;7.952;2022-12-18T03:30:24;44.33;;;23.93;;
7446;SDS011;3765;47.962;7.952;2022-12-18T03:32:56;43.70;;;20.90;;
7446;SDS011;3765;47.962;7.952;2022-12-18T03:35:32;36.93;;;19.87;;
7446;SDS011;3765;47.962;7.952;2022-12-18T03:38:03;34.70;;;18.73;;
7446;SDS011;3765;47.962;7.952;2022-12-18T03:40:34;45.80;;;21.43;;
7446;SDS011;3765;47.962;7.952;2022-12-18T03:43:10;31.70;;;17.20;;
7446;SDS011;3765;47.962;7.952;2022-12-18T03:45:46;31.13;;;17.70;;
7446;SDS011;3765;47.962;7.952;2022-12-18T03:48:21;35.63;;;20.37;;
7446;SDS011;3765;47.962;7.952;2022-12-18T03:50:57;34.80;;;18.50;;
7446;SDS011;3765;47.962;7.952;2022-12-18T03:53:32;27.83;;;16.03;;
7446;SDS011;3765;47.962;7.952;2022-12-18T03:56:07;30.47;;;14.20;;
7446;SDS011;3765;47.962;7.952;2022-12-18T03:58:38;27.00;;;14.87;;
7446;SDS011;3765;47.962;7.952;2022-12-18T04:01:09;26.07;;;13.50;;
7446;SDS011;3765;47.962;7.952;2022-12-18T04:03:42;28.73;;;15.37;;
7446;SDS011;3765;47.962;7.952;2022-12-18T04:06:13;25.20;;;13.00;;
7446;SDS011;3765;47.962;7.952;2022-12-18T04:08:43;25.23;;;14.53;;
7446;SDS011;3765;47.962;7.952;2022-12-18T04:11:13;23.50;;;12.90;;
7446;SDS011;3765;47.962;7.952;2022-12-18T04:13:42;31.80;;;16.30;;
7446;SDS011;3765;47.962;7.952;2022-12-18T04:16:10;30.17;;;16.80;;
7446;SDS011;3765;47.962;7.952;2022-12-18T04:18:39;32.33;;;17.20;;
7446;SDS011;3765;47.962;7.952;2022-12-18T04:21:07;35.60;;;20.20;;
7446;SDS011;3765;47.962;7.952;2022-12-18T04:23:35;35.07;;;20.47;;
7446;SDS011;3765;47.962;7.952;2022-12-18T04:26:04;41.00;;;22.57;;
7446;SDS011;3765;47.962;7.952;2022-12-18T04:28:32;37.40;;;20.13;;
7446;SDS011;3765;47.962;7.952;2022-12-18T04:31:01;43.53;;;22.50;;
7446;SDS011;3765;47.962;7.952;2022-12-18T04:33:30;39.60;;;20.80;;
7446;SDS011;3765;47.962;7.952;2022-12-18T04:35:58;28.80;;;15.87;;
7446;SDS011;3765;47.962;7.952;2022-12-18T04:38:26;27.87;;;16.07;;
7446;SDS011;3765;47.962;7.952;2022-12-18T04:40:54;29.83;;;14.23;;
7446;SDS011;3765;47.962;7.952;2022-12-18T04:43:22;28.37;;;15.73;;
7446;SDS011;3765;47.962;7.952;2022-12-18T04:45:51;24.80;;;14.10;;
7446;SDS011;3765;47.962;7.952;2022-12-18T04:48:21;24.97;;;13.43;;
7446;SDS011;3765;47.962;7.952;2022-12-18T04:50:49;25.63;;;13.23;;
7446;SDS011;3765;47.962;7.952;2022-12-18T04:53:17;22.70;;;13.03;;
7446;SDS011;3765;47.962;7.952;2022-12-18T04:55:46;29.50;;;16.10;;
7446;SDS011;3765;47.962;7.952;2022-12-18T04:58:14;30.30;;;17.00;;
7446;SDS011;3765;47.962;7.952;2022-12-18T05:00:42;31.33;;;15.57;;
7446;SDS011;3765;47.962;7.952;2022-12-18T05:03:10;27.90;;;14.80;;
7446;SDS011;3765;47.962;7.952;2022-12-18T05:05:40;24.67;;;13.77;;
7446;SDS011;3765;47.962;7.952;2022-12-18T05:08:08;24.20;;;13.43;;
7446;SDS011;3765;47.962;7.952;2022-12-18T05:10:36;21.20;;;11.47;;
7446;SDS011;3765;47.962;7.952;2022-12-18T05:13:04;20.63;;;9.60;;
7446;SDS011;3765;47.962;7.952;2022-12-18T05:15:32;20.80;;;10.27;;
7446;SDS011;3765;47.962;7.952;2022-12-18T05:18:01;18.30;;;9.30;;
7446;SDS011;3765;47.962;7.952;2022-12-18T05:20:30;16.30;;;9.13;;
7446;SDS011;3765;47.962;7.952;2022-12-18T05:23:00;20.10;;;8.90;;
7446;SDS011;3765;47.962;7.952;2022-12-18T05:25:28;20.33;;;9.00;;
7446;SDS011;3765;47.962;7.952;2022-12-18T05:27:56;19.10;;;9.50;;
7446;SDS011;3765;47.962;7.952;2022-12-18T05:30:25;17.80;;;8.10;;
7446;SDS011;3765;47.962;7.952;2022-12-18T05:32:54;21.30;;;9.20;;
7446;SDS011;3765;47.962;7.952;2022-12-18T05:35:22;15.40;;;7.50;;
7446;SDS011;3765;47.962;7.952;2022-12-18T05:37:51;20.60;;;10.40;;
7446;SDS011;3765;47.962;7.952;2022-12-18T05:40:20;18.70;;;9.07;;
7446;SDS011;3765;47.962;7.952;2022-12-18T05:42:48;17.87;;;8.90;;
7446;SDS011;3765;47.962;7.952;2022-12-18T05:45:17;16.27;;;8.70;;
7446;SDS011;3765;47.962;7.952;2022-12-18T05:47:45;17.90;;;8.73;;
7446;SDS011;3765;47.962;7.952;2022-12-18T05:50:13;14.27;;;7.47;;
7446;SDS011;3765;47.962;7.952;2022-12-18T05:52:41;20.17;;;9.93;;
7446;SDS011;3765;47.962;7.952;2022-12-18T05:55:09;22.67;;;11.10;;
7446;SDS011;3765;47.962;7.952;2022-12-18T05:57:39;19.80;;;10.77;;
7446;SDS011;3765;47.962;7.952;2022-12-18T06:00:08;24.80;;;12.40;;
7446;SDS011;3765;47.962;7.952;2022-12-18T06:02:37;20.20;;;10.63;;
7446;SDS011;3765;47.962;7.952;2022-12-18T06:05:05;21.53;;;11.07;;
7446;SDS011;3765;47.962;7.952;2022-12-18T06:07:35;21.13;;;11.07;;
7446;SDS011;3765;47.962;7.952;2022-12-18T06:10:03;23.73;;;9.60;;
7446;SDS011;3765;47.962;7.952;2022-12-18T06:12:32;22.77;;;9.10;;
7446;SDS011;3765;47.962;7.952;2022-12-18T06:15:02;14.50;;;7.30;;
7446;SDS011;3765;47.962;7.952;2022-12-18T06:17:31;20.50;;;7.50;;
7446;SDS011;3765;47.962;7.952;2022-12-18T06:20:00;17.17;;;8.37;;
7446;SDS011;3765;47.962;7.952;2022-12-18T06:22:30;16.13;;;7.30;;
7446;SDS011;3765;47.962;7.952;2022-12-18T06:24:58;19.87;;;10.20;;
7446;SDS011;3765;47.962;7.952;2022-12-18T06:27:26;16.63;;;8.23;;
7446;SDS011;3765;47.962;7.952;2022-12-18T06:29:55;27.80;;;13.90;;
7446;SDS011;3765;47.962;7.952;2022-12-18T06:32:24;17.43;;;9.43;;
7446;SDS011;3765;47.962;7.952;2022-12-18T06:34:52;17.00;;;8.27;;
7446;SDS011;3765;47.962;7.952;2022-12-18T06:37:21;17.47;;;7.43;;
7446;SDS011;3765;47.962;7.952;2022-12-18T06:39:52;14.40;;;6.70;;
7446;SDS011;3765;47.962;7.952;2022-12-18T06:42:20;17.50;;;7.87;;
7446;SDS011;3765;47.962;7.952;2022-12-18T06:44:48;17.80;;;8.43;;
7446;SDS011;3765;47.962;7.952;2022-12-18T06:47:16;16.90;;;6.60;;
7446;SDS011;3765;47.962;7.952;2022-12-18T06:49:46;24.97;;;10.17;;
7446;SDS011;3765;47.962;7.952;2022-12-18T06:52:17;24.30;;;10.10;;
7446;SDS011;3765;47.962;7.952;2022-12-18T06:54:45;23.07;;;10.20;;
7446;SDS011;3765;47.962;7.952;2022-12-18T06:57:13;19.27;;;9.30;;
7446;SDS011;3765;47.962;7.952;2022-12-18T06:59:41;22.33;;;9.00;;
7446;SDS011;3765;47.962;7.952;2022-12-18T07:02:10;23.73;;;8.57;;
7446;SDS011;3765;47.962;7.952;2022-12-18T07:04:39;20.27;;;8.33;;
7446;SDS011;3765;47.962;7.952;2022-12-18T07:07:09;18.63;;;8.53;;
7446;SDS011;3765;47.962;7.952;2022-12-18T07:09:37;19.47;;;8.83;;
7446;SDS011;3765;47.962;7.952;2022-12-18T07:12:05;25.33;;;8.30;;
7446;SDS011;3765;47.962;7.952;2022-12-18T07:14:34;14.33;;;7.40;;
7446;SDS011;3765;47.962;7.952;2022-12-18T07:17:02;19.17;;;9.00;;
7446;SDS011;3765;47.962;7.952;2022-12-18T07:19:31;26.30;;;12.30;;
7446;SDS011;3765;47.962;7.952;2022-12-18T07:22:00;17.60;;;8.00;;
7446;SDS011;3765;47.962;7.952;2022-12-18T07:24:31;19.87;;;9.50;;
7446;SDS011;3765;47.962;7.952;2022-12-18T07:27:01;24.47;;;12.63;;
7446;SDS011;3765;47.962;7.952;2022-12-18T07:29:29;21.57;;;11.50;;
7446;SDS011;3765;47.962;7.952;2022-12-18T07:31:58;21.83;;;11.23;;
7446;SDS011;3765;47.962;7.952;2022-12-18T07:34:26;20.17;;;9.80;;
7446;SDS011;3765;47.962;7.952;2022-12-18T07:36:54;23.63;;;10.07;;
7446;SDS011;3765;47.962;7.952;2022-12-18T07:39:22;22.00;;;10.73;;
7446;SDS011;3765;47.962;7.952;2022-12-18T07:41:52;16.90;;;9.17;;
7446;SDS011;3765;47.962;7.952;2022-12-18T07:44:34;18.27;;;9.57;;
7446;SDS011;3765;47.962;7.952;2022-12-18T07:47:02;17.90;;;8.20;;
7446;SDS011;3765;47.962;7.952;2022-12-18T07:49:38;19.00;;;8.93;;
7446;SDS011;3765;47.962;7.952;2022-12-18T07:52:06;19.87;;;9.30;;
7446;SDS011;3765;47.962;7.952;2022-12-18T07:54:35;20.00;;;9.40;;
7446;SDS011;3765;47.962;7.952;2022-12-18T07:57:05;17.40;;;7.93;;
7446;SDS011;3765;47.962;7.952;2022-12-18T07:59:53;16.00;;;7.50;;
7446;SDS011;3765;47.962;7.952;2022-12-18T08:02:21;18.27;;;9.60;;
7446;SDS011;3765;47.962;7.952;2022-12-18T08:04:50;32.97;;;14.73;;
7446;SDS011;3765;47.962;7.952;2022-12-18T08:07:18;58.67;;;34.00;;
7446;SDS011;3765;47.962;7.952;2022-12-18T08:09:46;45.47;;;21.77;;
7446;SDS011;3765;47.962;7.952;2022-12-18T08:12:15;21.83;;;11.20;;
7446;SDS011;3765;47.962;7.952;2022-12-18T08:14:43;22.80;;;10.77;;
7446;SDS011;3765;47.962;7.952;2022-12-18T08:17:12;22.13;;;11.03;;
7446;SDS011;3765;47.962;7.952;2022-12-18T08:19:40;24.67;;;13.93;;
7446;SDS011;3765;47.962;7.952;2022-12-18T08:22:08;44.97;;;25.07;;
7446;SDS011;3765;47.962;7.952;2022-12-18T08:24:36;36.53;;;20.60;;
7446;SDS011;3765;47.962;7.952;2022-12-18T08:27:04;36.03;;;21.40;;
7446;SDS011;3765;47.962;7.952;2022-12-18T08:29:54;40.30;;;23.70;;
7446;SDS011;3765;47.962;7.952;2022-12-18T08:32:22;53.70;;;30.10;;
7446;SDS011;3765;47.962;7.952;2022-12-18T08:34:51;50.53;;;30.00;;
7446;SDS011;3765;47.962;7.952;2022-12-18T08:37:19;41.47;;;22.80;;
7446;SDS011;3765;47.962;7.952;2022-12-18T08:39:47;39.20;;;24.53;;
7446;SDS011;3765;47.962;7.952;2022-12-18T08:42:15;39.43;;;22.80;;
7446;SDS011;3765;47.962;7.952;2022-12-18T08:45:02;45.23;;;24.70;;
7446;SDS011;3765;47.962;7.952;2022-12-18T08:47:31;73.37;;;36.50;;
7446;SDS011;3765;47.962;7.952;2022-12-18T08:49:59;98.73;;;48.60;;
7446;SDS011;3765;47.962;7.952;2022-12-18T08:52:27;59.80;;;32.67;;
7446;SDS011;3765;47.962;7.952;2022-12-18T08:54:56;58.90;;;28.47;;
7446;SDS011;3765;47.962;7.952;2022-12-18T08:57:24;33.90;;;19.30;;
7446;SDS011;3765;47.962;7.952;2022-12-18T08:59:52;25.33;;;15.30;;
7446;SDS011;3765;47.962;7.952;2022-12-18T09:02:22;27.73;;;14.40;;
7446;SDS011;3765;47.962;7.952;2022-12-18T09:04:50;23.80;;;12.20;;
7446;SDS011;3765;47.962;7.952;2022-12-18T09:07:23;28.43;;;13.30;;
7446;SDS011;3765;47.962;7.952;2022-12-18T09:09:51;20.17;;;11.70;;
7446;SDS011;3765;47.962;7.952;2022-12-18T09:12:19;21.40;;;12.77;;
7446;SDS011;3765;47.962;7.952;2022-12-18T09:14:47;21.93;;;10.67;;
7446;SDS011;3765;47.962;7.952;2022-12-18T09:17:18;25.50;;;13.27;;
7446;SDS011;3765;47.962;7.952;2022-12-18T09:19:48;21.57;;;13.67;;
7446;SDS011;3765;47.962;7.952;2022-12-18T09:22:16;20.27;;;11.57;;
7446;SDS011;3765;47.962;7.952;2022-12-18T09:24:44;22.70;;;13.10;;
7446;SDS011;3765;47.962;7.952;2022-12-18T09:27:12;30.10;;;13.30;;
7446;SDS011;3765;47.962;7.952;2022-12-18T09:29:40;20.13;;;12.20;;
7446;SDS011;3765;47.962;7.952;2022-12-18T09:32:09;24.80;;;13.30;;
7446;SDS011;3765;47.962;7.952;2022-12-18T09:34:37;23.57;;;13.47;;
7446;SDS011;3765;47.962;7.952;2022-12-18T09:37:07;25.73;;;14.13;;
7446;SDS011;3765;47.962;7.952;2022-12-18T09:39:35;22.50;;;13.10;;
7446;SDS011;3765;47.962;7.952;2022-12-18T09:42:04;23.63;;;13.67;;
7446;SDS011;3765;47.962;7.952;2022-12-18T09:44:33;28.30;;;16.77;;
7446;SDS011;3765;47.962;7.952;2022-12-18T09:47:11;29.43;;;15.20;;
7446;SDS011;3765;47.962;7.952;2022-12-18T09:49:46;25.47;;;14.43;;
7446;SDS011;3765;47.962;7.952;2022-12-18T09:52:17;27.87;;;14.63;;
7446;SDS011;3765;47.962;7.952;2022-12-18T09:54:52;27.17;;;14.17;;
7446;SDS011;3765;47.962;7.952;2022-12-18T09:57:24;22.47;;;13.67;;
7446;SDS011;3765;47.962;7.952;2022-12-18T09:59:54;21.20;;;11.00;;
7446;SDS011;3765;47.962;7.952;2022-12-18T10:02:26;19.47;;;11.20;;
7446;SDS011;3765;47.962;7.952;2022-12-18T10:05:05;27.23;;;14.37;;
7446;SDS011;3765;47.962;7.952;2022-12-18T10:07:40;26.10;;;15.00;;
7446;SDS011;3765;47.962;7.952;2022-12-18T10:10:18;21.30;;;12.07;;
7446;SDS011;3765;47.962;7.952;2022-12-18T10:12:59;21.07;;;11.93;;
7446;SDS011;3765;47.962;7.952;2022-12-18T10:15:34;21.30;;;13.00;;
7446;SDS011;3765;47.962;7.952;2022-12-18T10:18:12;21.00;;;12.07;;
7446;SDS011;3765;47.962;7.952;2022-12-18T10:20:48;21.87;;;11.67;;
7446;SDS011;3765;47.962;7.952;2022-12-18T10:23:21;22.70;;;12.50;;
7446;SDS011;3765;47.962;7.952;2022-12-18T10:25:57;22.50;;;13.90;;
7446;SDS011;3765;47.962;7.952;2022-12-18T10:28:30;29.63;;;15.90;;
7446;SDS011;3765;47.962;7.952;2022-12-18T10:30:59;24.63;;;14.87;;
7446;SDS011;3765;47.962;7.952;2022-12-18T10:33:28;24.97;;;15.57;;
7446;SDS011;3765;47.962;7.952;2022-12-18T10:35:58;21.10;;;13.13;;
7446;SDS011;3765;47.962;7.952;2022-12-18T10:38:29;20.57;;;11.67;;
7446;SDS011;3765;47.962;7.952;2022-12-18T10:40:59;27.20;;;16.07;;
7446;SDS011;3765;47.962;7.952;2022-12-18T10:43:29;23.03;;;13.40;;
7446;SDS011;3765;47.962;7.952;2022-12-18T10:46:04;20.97;;;12.93;;
7446;SDS011;3765;47.962;7.952;2022-12-18T10:48:47;23.10;;;13.40;;
7446;SDS011;3765;47.962;7.952;2022-12-18T10:51:19;21.97;;;13.43;;
7446;SDS011;3765;47.962;7.952;2022-12-18T10:53:56;33.20;;;13.00;;
7446;SDS011;3765;47.962;7.952;2022-12-18T10:56:28;29.93;;;15.80;;
7446;SDS011;3765;47.962;7.952;2022-12-18T10:58:59;31.90;;;19.93;;
7446;SDS011;3765;47.962;7.952;2022-12-18T11:01:34;30.00;;;18.30;;
7446;SDS011;3765;47.962;7.952;2022-12-18T11:04:16;32.53;;;18.90;;
7446;SDS011;3765;47.962;7.952;2022-12-18T11:06:54;27.00;;;14.47;;
7446;SDS011;3765;47.962;7.952;2022-12-18T11:09:26;36.03;;;18.53;;
7446;SDS011;3765;47.962;7.952;2022-12-18T11:11:55;27.10;;;13.97;;
7446;SDS011;3765;47.962;7.952;2022-12-18T11:14:28;23.57;;;14.03;;
7446;SDS011;3765;47.962;7.952;2022-12-18T11:16:58;27.13;;;14.17;;
7446;SDS011;3765;47.962;7.952;2022-12-18T11:19:51;19.20;;;11.03;;
7446;SDS011;3765;47.962;7.952;2022-12-18T11:22:23;19.23;;;10.90;;
7446;SDS011;3765;47.962;7.952;2022-12-18T11:24:54;20.13;;;10.73;;
7446;SDS011;3765;47.962;7.952;2022-12-18T11:27:49;26.23;;;13.23;;
7446;SDS011;3765;47.962;7.952;2022-12-18T11:30:21;24.00;;;14.27;;
7446;SDS011;3765;47.962;7.952;2022-12-18T11:32:52;29.03;;;18.57;;
7446;SDS011;3765;47.962;7.952;2022-12-18T11:35:26;31.27;;;19.50;;
7446;SDS011;3765;47.962;7.952;2022-12-18T11:38:04;25.30;;;14.10;;
7446;SDS011;3765;47.962;7.952;2022-12-18T11:40:42;24.70;;;13.40;;
7446;SDS011;3765;47.962;7.952;2022-12-18T11:43:13;30.33;;;16.53;;
7446;SDS011;3765;47.962;7.952;2022-12-18T11:45:47;21.57;;;12.30;;
7446;SDS011;3765;47.962;7.952;2022-12-18T11:48:21;33.93;;;19.77;;
7446;SDS011;3765;47.962;7.952;2022-12-18T11:50:53;20.77;;;11.13;;
7446;SDS011;3765;47.962;7.952;2022-12-18T11:53:23;28.67;;;16.27;;
7446;SDS011;3765;47.962;7.952;2022-12-18T11:56:00;23.70;;;13.17;;
7446;SDS011;3765;47.962;7.952;2022-12-18T11:58:40;25.10;;;14.57;;
7446;SDS011;3765;47.962;7.952;2022-12-18T12:01:19;45.20;;;16.30;;
7446;SDS011;3765;47.962;7.952;2022-12-18T12:04:01;22.70;;;12.73;;
7446;SDS011;3765;47.962;7.952;2022-12-18T12:06:46;17.97;;;9.50;;
7446;SDS011;3765;47.962;7.952;2022-12-18T12:09:29;19.23;;;10.70;;
7446;SDS011;3765;47.962;7.952;2022-12-18T12:12:11;21.23;;;10.93;;
7446;SDS011;3765;47.962;7.952;2022-12-18T12:14:54;24.03;;;14.23;;
7446;SDS011;3765;47.962;7.952;2022-12-18T12:17:31;32.87;;;20.27;;
7446;SDS011;3765;47.962;7.952;2022-12-18T12:20:07;41.73;;;22.33;;
7446;SDS011;3765;47.962;7.952;2022-12-18T12:22:42;36.33;;;21.60;;
7446;SDS011;3765;47.962;7.952;2022-12-18T12:25:25;39.60;;;23.27;;
7446;SDS011;3765;47.962;7.952;2022-12-18T12:28:05;43.50;;;24.20;;
7446;SDS011;3765;47.962;7.952;2022-12-18T12:30:45;38.07;;;24.27;;
7446;SDS011;3765;47.962;7.952;2022-12-18T12:33:27;43.20;;;24.97;;
7446;SDS011;3765;47.962;7.952;2022-12-18T12:36:05;38.43;;;23.20;;
7446;SDS011;3765;47.962;7.952;2022-12-18T12:38:42;41.80;;;26.27;;
7446;SDS011;3765;47.962;7.952;2022-12-18T12:41:18;45.17;;;26.13;;
7446;SDS011;3765;47.962;7.952;2022-12-18T12:44:09;43.27;;;26.00;;
7446;SDS011;3765;47.962;7.952;2022-12-18T12:46:42;46.20;;;26.87;;
7446;SDS011;3765;47.962;7.952;2022-12-18T12:49:12;40.23;;;24.60;;
7446;SDS011;3765;47.962;7.952;2022-12-18T12:51:45;41.73;;;24.63;;
7446;SDS011;3765;47.962;7.952;2022-12-18T12:54:20;44.90;;;26.33;;
7446;SDS011;3765;47.962;7.952;2022-12-18T12:56:53;43.70;;;27.77;;
7446;SDS011;3765;47.962;7.952;2022-12-18T12:59:30;61.73;;;42.33;;
7446;SDS011;3765;47.962;7.952;2022-12-18T13:02:05;55.00;;;34.50;;
7446;SDS011;3765;47.962;7.952;2022-12-18T13:04:45;46.13;;;26.83;;
7446;SDS011;3765;47.962;7.952;2022-12-18T13:07:17;47.97;;;26.97;;
7446;SDS011;3765;47.962;7.952;2022-12-18T13:12:54;46.80;;;28.03;;
7446;SDS011;3765;47.962;7.952;2022-12-18T13:15:26;45.90;;;27.30;;
7446;SDS011;3765;47.962;7.952;2022-12-18T13:18:04;44.13;;;27.00;;
7446;SDS011;3765;47.962;7.952;2022-12-18T13:20:38;49.03;;;28.43;;
7446;SDS011;3765;47.962;7.952;2022-12-18T13:28:58;54.60;;;30.47;;
7446;SDS011;3765;47.962;7.952;2022-12-18T13:34:41;47.73;;;28.63;;
7446;SDS011;3765;47.962;7.952;2022-12-18T13:43:26;50.43;;;29.07;;
7446;SDS011;3765;47.962;7.952;2022-12-18T13:46:05;52.93;;;31.30;;
7446;SDS011;3765;47.962;7.952;2022-12-18T13:48:55;55.40;;;29.60;;
7446;SDS011;3765;47.962;7.952;2022-12-18T13:51:28;52.03;;;29.73;;
7446;SDS011;3765;47.962;7.952;2022-12-18T13:53:59;55.10;;;30.53;;
7446;SDS011;3765;47.962;7.952;2022-12-18T13:56:31;48.33;;;30.13;;
7446;SDS011;3765;47.962;7.952;2022-12-18T13:59:05;50.47;;;33.23;;
7446;SDS011;3765;47.962;7.952;2022-12-18T14:01:43;52.50;;;33.40;;
7446;SDS011;3765;47.962;7.952;2022-12-18T14:04:18;52.17;;;32.07;;
7446;SDS011;3765;47.962;7.952;2022-12-18T14:06:51;49.50;;;31.20;;
7446;SDS011;3765;47.962;7.952;2022-12-18T14:09:24;54.77;;;31.77;;
7446;SDS011;3765;47.962;7.952;2022-12-18T14:11:55;60.63;;;35.70;;
7446;SDS011;3765;47.962;7.952;2022-12-18T14:14:40;69.93;;;42.97;;
7446;SDS011;3765;47.962;7.952;2022-12-18T14:17:11;72.80;;;40.53;;
7446;SDS011;3765;47.962;7.952;2022-12-18T14:19:42;66.93;;;39.57;;
7446;SDS011;3765;47.962;7.952;2022-12-18T14:22:15;55.93;;;33.97;;
7446;SDS011;3765;47.962;7.952;2022-12-18T14:24:45;54.90;;;32.67;;
7446;SDS011;3765;47.962;7.952;2022-12-18T14:27:20;60.13;;;36.43;;
7446;SDS011;3765;47.962;7.952;2022-12-18T14:29:50;64.27;;;38.07;;
7446;SDS011;3765;47.962;7.952;2022-12-18T14:32:19;65.63;;;40.10;;
7446;SDS011;3765;47.962;7.952;2022-12-18T14:34:49;101.57;;;43.27;;
7446;SDS011;3765;47.962;7.952;2022-12-18T14:37:21;74.30;;;40.60;;
7446;SDS011;3765;47.962;7.952;2022-12-18T14:39:52;68.40;;;41.00;;
7446;SDS011;3765;47.962;7.952;2022-12-18T14:42:21;71.27;;;42.40;;
7446;SDS011;3765;47.962;7.952;2022-12-18T14:48:08;68.63;;;40.93;;
7446;SDS011;3765;47.962;7.952;2022-12-18T14:50:56;75.47;;;42.80;;
7446;SDS011;3765;47.962;7.952;2022-12-18T14:53:37;71.20;;;41.33;;
7446;SDS011;3765;47.962;7.952;2022-12-18T14:56:18;72.13;;;39.57;;
7446;SDS011;3765;47.962;7.952;2022-12-18T14:58:49;65.07;;;37.27;;
7446;SDS011;3765;47.962;7.952;2022-12-18T15:01:19;72.23;;;40.83;;
7446;SDS011;3765;47.962;7.952;2022-12-18T15:03:50;75.70;;;45.17;;
7446;SDS011;3765;47.962;7.952;2022-12-18T15:06:27;80.87;;;44.00;;
7446;SDS011;3765;47.962;7.952;2022-12-18T15:09:00;70.33;;;40.50;;
7446;SDS011;3765;47.962;7.952;2022-12-18T15:11:33;62.77;;;39.47;;
7446;SDS011;3765;47.962;7.952;2022-12-18T15:14:22;66.03;;;39.27;;
7446;SDS011;3765;47.962;7.952;2022-12-18T15:17:06;80.03;;;40.17;;
7446;SDS011;3765;47.962;7.952;2022-12-18T15:19:45;59.70;;;37.33;;
7446;SDS011;3765;47.962;7.952;2022-12-18T15:22:19;59.67;;;35.90;;
7446;SDS011;3765;47.962;7.952;2022-12-18T15:24:51;62.33;;;36.50;;
7446;SDS011;3765;47.962;7.952;2022-12-18T15:27:20;60.03;;;34.80;;
7446;SDS011;3765;47.962;7.952;2022-12-18T15:30:00;67.60;;;40.60;;
7446;SDS011;3765;47.962;7.952;2022-12-18T15:32:44;65.63;;;38.83;;
7446;SDS011;3765;47.962;7.952;2022-12-18T15:35:16;59.17;;;35.87;;
7446;SDS011;3765;47.962;7.952;2022-12-18T15:37:46;56.77;;;35.90;;
7446;SDS011;3765;47.962;7.952;2022-12-18T15:40:18;55.83;;;32.00;;